Time;durP1;ratioP1;P1;durP2;ratioP2;P2;SDS_P1;SDS_P2;PMS_P1;PMS_P2;Temp;Humidity;BMP_temperature;BMP_pressure;BME280_temperature;BME280_humidity;BME280_pressure;Samples;Min_cycle;Max_cycle;Signal;HPM_P1;HPM_P2
2021/10/25 00:00:13;;;;;;;1.87;1.30;;;1.10;97.20;;;;;;2081374;28;20264;-64
2021/10/25 00:01:14;;;;;;;4.00;1.50;;;1.10;97.10;;;;;;2080855;28;20176;-64
2021/10/25 00:02:15;;;;;;;2.75;1.30;;;1.10;96.90;;;;;;2081319;28;20566;-63
2021/10/25 00:03:16;;;;;;;1.35;1.20;;;1.10;96.80;;;;;;2081495;28;20187;-64
2021/10/25 00:04:17;;;;;;;2.23;1.53;;;1.10;96.60;;;;;;2081238;28;20633;-65
2021/10/25 00:05:18;;;;;;;1.73;1.35;;;1.10;96.60;;;;;;2081579;28;20235;-64
2021/10/25 00:06:19;;;;;;;3.80;1.37;;;1.10;96.50;;;;;;2081392;28;20636;-64
2021/10/25 00:07:19;;;;;;;2.70;1.30;;;1.10;96.50;;;;;;2081405;28;20185;-63
2021/10/25 00:08:20;;;;;;;1.40;1.30;;;1.10;96.50;;;;;;2081449;28;20195;-65
2021/10/25 00:09:21;;;;;;;1.70;1.20;;;1.10;96.60;;;;;;2081494;28;20649;-65
2021/10/25 00:10:22;;;;;;;1.67;1.20;;;1.10;96.60;;;;;;2081358;28;20184;-64
2021/10/25 00:11:23;;;;;;;1.35;1.20;;;1.20;96.60;;;;;;2081090;28;20621;-64
2021/10/25 00:12:24;;;;;;;2.53;1.67;;;1.10;96.40;;;;;;2081229;28;20196;-64
2021/10/25 00:13:25;;;;;;;1.95;1.30;;;1.10;96.50;;;;;;2081451;28;20203;-65
2021/10/25 00:14:26;;;;;;;2.90;1.38;;;1.20;96.60;;;;;;2081368;28;20243;-65
2021/10/25 00:15:27;;;;;;;1.90;1.30;;;1.20;96.60;;;;;;2081303;28;20226;-66
2021/10/25 00:16:28;;;;;;;1.45;1.23;;;1.10;96.40;;;;;;2081375;28;20204;-65
2021/10/25 00:17:29;;;;;;;1.47;1.10;;;1.10;96.50;;;;;;2081321;28;20690;-66
2021/10/25 00:18:29;;;;;;;1.63;1.20;;;1.10;96.50;;;;;;2081396;28;20227;-64
2021/10/25 00:19:31;;;;;;;1.07;0.97;;;1.10;96.60;;;;;;2081207;28;20177;-66
2021/10/25 00:20:32;;;;;;;1.63;1.10;;;1.10;96.60;;;;;;2081351;28;20225;-64
2021/10/25 00:21:33;;;;;;;1.48;1.30;;;1.10;96.70;;;;;;2081018;28;20185;-65
2021/10/25 00:22:34;;;;;;;1.33;1.00;;;1.10;96.70;;;;;;2081361;28;20200;-66
2021/10/25 00:23:35;;;;;;;1.37;1.20;;;1.20;97.20;;;;;;2081366;28;20661;-65
2021/10/25 00:24:36;;;;;;;1.77;1.30;;;1.20;96.60;;;;;;2081475;28;20307;-66
2021/10/25 00:25:37;;;;;;;1.47;1.03;;;1.10;96.70;;;;;;2081282;28;20207;-65
2021/10/25 00:26:37;;;;;;;2.33;1.27;;;1.20;96.70;;;;;;2081281;28;20216;-66
2021/10/25 00:27:38;;;;;;;3.07;1.20;;;1.20;96.50;;;;;;2081276;28;20185;-65
2021/10/25 00:28:39;;;;;;;2.17;1.20;;;1.10;96.40;;;;;;2080681;28;20180;-65
2021/10/25 00:29:39;;;;;;;1.53;1.20;;;1.10;96.30;;;;;;2081435;28;20636;-66
2021/10/25 00:30:40;;;;;;;1.90;1.30;;;1.10;96.40;;;;;;2081461;28;20200;-65
2021/10/25 00:31:41;;;;;;;2.33;1.30;;;1.10;96.40;;;;;;2080879;28;20206;-66
2021/10/25 00:32:41;;;;;;;2.10;1.60;;;1.10;96.40;;;;;;2081261;28;20212;-66
2021/10/25 00:33:42;;;;;;;1.20;1.10;;;1.10;96.30;;;;;;2081220;28;20204;-65
2021/10/25 00:34:43;;;;;;;1.60;1.20;;;1.10;96.40;;;;;;2081246;28;20287;-65
2021/10/25 00:35:44;;;;;;;1.23;1.10;;;1.10;96.50;;;;;;2081411;28;20672;-66
2021/10/25 00:36:44;;;;;;;2.37;1.17;;;1.00;96.40;;;;;;2081259;28;20623;-65
2021/10/25 00:37:46;;;;;;;2.37;1.27;;;1.10;96.40;;;;;;2081167;28;20603;-65
2021/10/25 00:38:47;;;;;;;1.30;1.20;;;1.10;96.60;;;;;;2081425;28;20281;-65
2021/10/25 00:39:48;;;;;;;2.55;1.27;;;1.10;96.70;;;;;;2080569;28;20192;-65
2021/10/25 00:40:48;;;;;;;1.10;1.00;;;1.10;96.80;;;;;;2080647;28;20212;-65
2021/10/25 00:41:49;;;;;;;1.80;1.10;;;1.10;96.80;;;;;;2081112;28;20173;-66
2021/10/25 00:42:50;;;;;;;1.20;1.10;;;1.10;96.80;;;;;;2081169;28;20180;-64
2021/10/25 00:43:51;;;;;;;1.47;1.17;;;1.10;96.90;;;;;;2081256;28;20644;-65
2021/10/25 00:44:51;;;;;;;3.43;1.23;;;1.10;97.00;;;;;;2081285;28;20181;-66
2021/10/25 00:45:52;;;;;;;1.80;1.10;;;1.10;97.20;;;;;;2081112;28;20178;-64
2021/10/25 00:46:53;;;;;;;1.50;1.10;;;1.20;97.20;;;;;;2081122;28;20204;-66
2021/10/25 00:47:54;;;;;;;1.40;1.07;;;1.20;97.20;;;;;;2081090;28;20238;-65
2021/10/25 00:48:54;;;;;;;1.38;1.20;;;1.20;97.30;;;;;;2080491;28;20272;-64
2021/10/25 00:49:55;;;;;;;1.93;1.20;;;1.20;97.00;;;;;;2080389;28;20181;-65
2021/10/25 00:50:56;;;;;;;1.47;1.10;;;1.20;97.00;;;;;;2081165;28;20176;-66
2021/10/25 00:51:57;;;;;;;1.10;1.00;;;1.20;96.80;;;;;;2080930;28;20204;-65
2021/10/25 00:52:57;;;;;;;1.53;1.10;;;1.20;96.80;;;;;;2081037;28;20192;-66
2021/10/25 00:53:58;;;;;;;2.67;1.07;;;1.20;96.90;;;;;;2080307;28;20183;-65
2021/10/25 00:54:59;;;;;;;1.40;1.10;;;1.20;96.90;;;;;;2080592;28;20427;-65
2021/10/25 00:56:04;;;;;;;1.23;1.13;;;1.20;97.00;;;;;;2081180;28;20173;-66
2021/10/25 00:57:05;;;;;;;1.92;1.20;;;1.20;97.10;;;;;;2080628;28;20810;-65
2021/10/25 00:58:07;;;;;;;1.30;1.20;;;1.20;97.10;;;;;;2080740;28;20301;-66
2021/10/25 00:59:09;;;;;;;1.25;1.13;;;1.20;96.90;;;;;;2080304;28;20181;-65
2021/10/25 01:00:11;;;;;;;1.50;1.20;;;1.20;96.80;;;;;;2080699;28;20199;-66
2021/10/25 01:01:12;;;;;;;1.88;1.20;;;1.10;96.50;;;;;;2080801;28;20598;-65
2021/10/25 01:02:13;;;;;;;1.10;1.00;;;1.10;96.50;;;;;;2081219;28;20236;-65
2021/10/25 01:03:14;;;;;;;1.90;1.10;;;1.10;96.50;;;;;;2081176;28;20644;-66
2021/10/25 01:04:15;;;;;;;2.10;1.20;;;1.10;96.60;;;;;;2080532;28;20181;-66
2021/10/25 01:05:15;;;;;;;1.87;1.20;;;1.10;96.70;;;;;;2080487;28;20267;-66
2021/10/25 01:06:16;;;;;;;3.30;1.20;;;1.10;96.70;;;;;;2080511;28;20239;-66
2021/10/25 01:07:17;;;;;;;1.43;1.30;;;1.10;96.60;;;;;;2080453;28;20189;-65
2021/10/25 01:08:18;;;;;;;1.88;1.10;;;1.00;96.50;;;;;;2081269;28;20698;-65
2021/10/25 01:09:19;;;;;;;1.03;0.93;;;1.00;96.50;;;;;;2081076;28;20178;-65
2021/10/25 01:10:21;;;;;;;1.33;1.10;;;1.00;96.60;;;;;;2080354;28;20266;-66
2021/10/25 01:11:24;;;;;;;1.38;1.25;;;0.90;96.60;;;;;;2080197;28;20185;-66
2021/10/25 01:12:26;;;;;;;2.20;1.20;;;0.90;96.50;;;;;;2081083;28;20173;-65
2021/10/25 01:13:27;;;;;;;4.57;1.15;;;0.90;96.70;;;;;;2080505;28;20462;-65
2021/10/25 01:14:28;;;;;;;1.25;1.00;;;0.90;96.70;;;;;;2080491;28;20200;-66
2021/10/25 01:15:29;;;;;;;1.10;1.00;;;0.90;96.60;;;;;;2080978;28;20196;-66
2021/10/25 01:16:30;;;;;;;1.35;1.05;;;0.90;96.60;;;;;;2081028;28;20201;-65
2021/10/25 01:17:31;;;;;;;1.73;1.10;;;0.90;96.60;;;;;;2081066;28;20240;-65
2021/10/25 01:18:32;;;;;;;0.75;0.75;;;0.90;96.60;;;;;;2080481;28;20178;-65
2021/10/25 01:19:33;;;;;;;1.37;1.07;;;0.90;96.60;;;;;;2080461;28;20244;-65
2021/10/25 01:20:33;;;;;;;4.17;1.30;;;0.90;96.80;;;;;;2081018;28;20281;-65
2021/10/25 01:21:34;;;;;;;1.80;1.27;;;0.90;97.10;;;;;;2080858;28;20628;-66
2021/10/25 01:22:37;;;;;;;2.07;1.10;;;0.90;97.10;;;;;;2081073;28;20187;-65
2021/10/25 01:23:38;;;;;;;3.13;1.20;;;0.90;97.10;;;;;;2080924;28;20611;-66
2021/10/25 01:24:39;;;;;;;1.40;1.10;;;0.90;97.10;;;;;;2081123;28;20185;-66
2021/10/25 01:25:39;;;;;;;1.30;1.20;;;0.90;97.20;;;;;;2081010;28;20620;-66
2021/10/25 01:26:40;;;;;;;1.00;0.90;;;0.90;97.20;;;;;;2081075;28;20292;-65
2021/10/25 01:27:41;;;;;;;1.77;1.20;;;0.90;97.10;;;;;;2080953;28;20212;-66
2021/10/25 01:28:41;;;;;;;1.20;1.10;;;0.90;97.10;;;;;;2081137;28;20177;-66
2021/10/25 01:29:42;;;;;;;1.87;1.20;;;0.90;97.00;;;;;;2081015;28;20319;-66
2021/10/25 01:30:43;;;;;;;2.33;1.10;;;0.90;96.90;;;;;;2081060;28;20227;-66
2021/10/25 01:31:44;;;;;;;1.57;1.10;;;0.90;96.90;;;;;;2080643;28;20185;-66
2021/10/25 01:32:47;;;;;;;1.45;1.20;;;0.90;96.90;;;;;;2081009;28;20177;-66
2021/10/25 01:33:51;;;;;;;2.20;1.35;;;0.90;96.90;;;;;;2080311;28;20173;-65
2021/10/25 01:34:51;;;;;;;1.55;1.17;;;0.90;97.10;;;;;;2072602;28;20215;-65
2021/10/25 01:35:52;;;;;;;1.50;1.13;;;0.90;97.10;;;;;;2080370;28;20260;-65
2021/10/25 01:36:53;;;;;;;1.30;1.20;;;0.90;97.20;;;;;;2080893;28;20272;-66
2021/10/25 01:37:53;;;;;;;1.47;1.30;;;0.90;97.70;;;;;;2081015;28;20177;-65
2021/10/25 01:38:54;;;;;;;2.57;1.33;;;0.90;97.30;;;;;;2081121;28;20170;-66
2021/10/25 01:39:55;;;;;;;1.93;1.20;;;1.00;97.40;;;;;;2081370;28;20264;-66
2021/10/25 01:40:56;;;;;;;4.37;1.37;;;1.00;97.40;;;;;;2081705;28;20256;-65
2021/10/25 01:41:57;;;;;;;1.80;1.20;;;1.00;97.20;;;;;;2081647;28;20373;-66
2021/10/25 01:42:57;;;;;;;3.47;1.30;;;1.00;97.10;;;;;;2082228;28;20187;-64
2021/10/25 01:43:58;;;;;;;3.10;1.13;;;1.00;97.10;;;;;;2082429;28;20659;-66
2021/10/25 01:44:59;;;;;;;2.87;1.30;;;1.00;97.10;;;;;;2082343;28;20228;-66
2021/10/25 01:46:00;;;;;;;2.20;1.40;;;1.10;97.20;;;;;;2082180;28;20173;-65
2021/10/25 01:47:02;;;;;;;2.85;1.42;;;1.10;97.50;;;;;;2082491;28;20185;-66
2021/10/25 01:48:04;;;;;;;4.45;1.17;;;1.20;97.50;;;;;;2081690;28;20205;-66
2021/10/25 01:49:05;;;;;;;1.55;1.23;;;1.20;97.40;;;;;;2081882;28;20188;-66
2021/10/25 01:50:07;;;;;;;2.53;1.20;;;1.30;97.40;;;;;;2082416;28;20196;-66
2021/10/25 01:51:08;;;;;;;1.77;1.20;;;1.30;97.50;;;;;;2082087;28;20767;-66
2021/10/25 01:52:09;;;;;;;1.30;1.20;;;1.40;97.40;;;;;;2082350;28;20181;-65
2021/10/25 01:53:10;;;;;;;2.17;1.20;;;1.40;97.20;;;;;;2082092;28;20193;-66
2021/10/25 01:54:11;;;;;;;1.10;1.00;;;1.40;97.00;;;;;;2082434;28;20260;-65
2021/10/25 01:55:12;;;;;;;1.87;1.20;;;1.40;97.00;;;;;;2082235;28;20680;-66
2021/10/25 01:56:13;;;;;;;1.40;0.90;;;1.40;96.90;;;;;;2081615;28;20188;-65
2021/10/25 01:57:14;;;;;;;1.30;1.20;;;1.40;96.60;;;;;;2081734;28;21016;-64
2021/10/25 01:58:14;;;;;;;1.57;1.23;;;1.40;96.70;;;;;;2082309;28;20223;-65
2021/10/25 01:59:15;;;;;;;1.93;1.20;;;1.40;96.80;;;;;;2082276;28;20188;-66
2021/10/25 02:00:16;;;;;;;1.42;1.10;;;1.40;96.90;;;;;;2082197;28;20177;-65
2021/10/25 02:01:20;;;;;;;2.97;1.42;;;1.40;97.00;;;;;;2081207;28;20215;-65
2021/10/25 02:02:21;;;;;;;1.67;1.23;;;1.40;97.40;;;;;;2081662;28;20232;-66
2021/10/25 02:03:22;;;;;;;1.83;1.10;;;1.50;97.50;;;;;;2082137;28;20205;-65
2021/10/25 02:04:23;;;;;;;5.80;1.57;;;1.50;97.60;;;;;;2082194;28;20831;-66
2021/10/25 02:05:24;;;;;;;1.33;1.13;;;1.50;97.50;;;;;;2082197;28;20494;-66
2021/10/25 02:06:24;;;;;;;1.30;1.20;;;1.50;97.40;;;;;;2082346;28;20220;-66
2021/10/25 02:07:25;;;;;;;1.70;1.10;;;1.60;97.30;;;;;;2082117;28;20235;-65
2021/10/25 02:08:26;;;;;;;1.70;1.27;;;1.50;97.00;;;;;;2082200;28;20272;-66
2021/10/25 02:09:27;;;;;;;2.07;1.20;;;1.60;97.00;;;;;;2082035;28;20700;-65
2021/10/25 02:10:27;;;;;;;2.87;1.20;;;1.60;96.90;;;;;;2081683;28;20243;-66
2021/10/25 02:11:28;;;;;;;2.03;1.27;;;1.60;96.90;;;;;;2081778;28;20203;-65
2021/10/25 02:12:29;;;;;;;2.10;1.07;;;1.60;97.00;;;;;;2082006;28;20272;-65
2021/10/25 02:13:29;;;;;;;1.33;1.10;;;1.60;97.00;;;;;;2082172;28;20232;-66
2021/10/25 02:14:30;;;;;;;1.50;1.40;;;1.60;97.00;;;;;;2082156;28;20209;-65
2021/10/25 02:15:31;;;;;;;3.00;1.30;;;1.60;96.90;;;;;;2081957;28;20184;-65
2021/10/25 02:16:35;;;;;;;1.65;1.00;;;1.70;96.90;;;;;;2082209;28;20457;-66
2021/10/25 02:17:36;;;;;;;1.35;1.23;;;1.70;96.70;;;;;;2080847;28;20191;-65
2021/10/25 02:18:37;;;;;;;1.77;1.10;;;1.60;96.60;;;;;;2081542;28;20190;-65
2021/10/25 02:19:39;;;;;;;1.30;1.10;;;1.60;96.50;;;;;;2081418;28;20189;-65
2021/10/25 02:20:41;;;;;;;3.85;1.33;;;1.70;96.50;;;;;;2081898;28;20192;-65
2021/10/25 02:21:42;;;;;;;1.65;1.30;;;1.60;96.40;;;;;;2081178;28;20177;-65
2021/10/25 02:22:42;;;;;;;1.30;1.17;;;1.60;96.40;;;;;;2081599;28;20176;-66
2021/10/25 02:23:43;;;;;;;1.50;1.10;;;1.70;96.50;;;;;;2081986;28;20181;-66
2021/10/25 02:24:45;;;;;;;1.53;1.27;;;1.70;96.50;;;;;;2082094;28;20183;-65
2021/10/25 02:25:48;;;;;;;2.67;1.20;;;1.70;96.50;;;;;;2081897;28;20184;-65
2021/10/25 02:26:48;;;;;;;2.28;1.20;;;1.70;96.50;;;;;;2082037;28;20696;-64
2021/10/25 02:27:50;;;;;;;2.13;1.40;;;1.80;96.60;;;;;;2082024;28;20184;-65
2021/10/25 02:28:51;;;;;;;2.08;1.17;;;1.90;96.50;;;;;;2082055;28;20184;-65
2021/10/25 02:29:51;;;;;;;1.80;1.23;;;1.90;96.30;;;;;;2081949;28;20666;-65
2021/10/25 02:30:52;;;;;;;1.63;1.20;;;2.00;96.30;;;;;;2082096;28;20173;-65
2021/10/25 02:31:53;;;;;;;2.60;1.23;;;2.00;96.30;;;;;;2081055;28;20212;-66
2021/10/25 02:32:54;;;;;;;1.60;1.20;;;2.10;96.30;;;;;;2081371;28;20184;-66
2021/10/25 02:33:54;;;;;;;1.80;1.40;;;2.10;96.30;;;;;;2082059;28;20191;-65
2021/10/25 02:34:55;;;;;;;2.10;1.27;;;2.20;96.20;;;;;;2081924;28;20211;-65
2021/10/25 02:35:56;;;;;;;1.50;1.07;;;2.20;96.00;;;;;;2081758;28;20204;-66
2021/10/25 02:36:56;;;;;;;1.20;1.10;;;2.30;96.00;;;;;;2081882;28;20183;-65
2021/10/25 02:37:57;;;;;;;1.50;1.30;;;2.30;95.60;;;;;;2081906;28;20219;-66
2021/10/25 02:38:58;;;;;;;1.73;1.20;;;2.40;95.40;;;;;;2082048;28;20264;-66
2021/10/25 02:39:59;;;;;;;1.93;1.30;;;2.40;95.30;;;;;;2081949;28;20173;-66
2021/10/25 02:41:00;;;;;;;1.23;1.00;;;2.30;94.70;;;;;;2081801;28;20177;-64
2021/10/25 02:42:01;;;;;;;1.52;1.13;;;2.30;95.10;;;;;;2081143;28;20194;-65
2021/10/25 02:43:02;;;;;;;1.40;1.13;;;2.30;94.60;;;;;;2081438;28;20219;-66
2021/10/25 02:44:03;;;;;;;2.00;1.40;;;2.20;94.90;;;;;;2082007;28;20173;-65
2021/10/25 02:45:04;;;;;;;1.83;1.30;;;2.20;94.50;;;;;;2082195;28;20267;-66
2021/10/25 02:46:06;;;;;;;1.42;1.00;;;2.20;94.70;;;;;;2081899;28;20192;-66
2021/10/25 02:47:07;;;;;;;1.55;1.38;;;2.10;94.40;;;;;;2081925;28;20205;-66
2021/10/25 02:48:08;;;;;;;2.03;1.10;;;2.10;94.60;;;;;;2081982;28;20192;-66
2021/10/25 02:49:09;;;;;;;3.30;1.40;;;2.10;94.60;;;;;;2082135;28;20182;-65
2021/10/25 02:50:10;;;;;;;1.87;1.40;;;2.00;94.50;;;;;;2081833;28;20432;-64
2021/10/25 02:51:12;;;;;;;1.55;1.08;;;2.00;94.90;;;;;;2081577;28;20181;-65
2021/10/25 02:52:12;;;;;;;1.38;1.02;;;2.00;94.60;;;;;;2081325;28;20185;-66
2021/10/25 02:53:14;;;;;;;2.17;1.47;;;2.00;94.70;;;;;;2081306;28;20264;-65
2021/10/25 02:54:15;;;;;;;1.15;1.05;;;1.90;94.70;;;;;;2081164;28;20181;-66
2021/10/25 02:55:16;;;;;;;1.63;1.27;;;1.90;94.70;;;;;;2081975;28;20185;-65
2021/10/25 02:56:18;;;;;;;1.93;1.20;;;1.80;94.70;;;;;;2082005;28;20225;-66
2021/10/25 02:57:19;;;;;;;1.88;1.23;;;1.80;94.80;;;;;;2081919;28;20181;-65
2021/10/25 02:58:19;;;;;;;2.60;1.30;;;1.80;94.80;;;;;;2081622;28;20181;-65
2021/10/25 02:59:21;;;;;;;1.50;1.10;;;1.80;94.80;;;;;;2082125;28;20184;-66
2021/10/25 03:00:21;;;;;;;2.97;1.20;;;1.80;94.90;;;;;;2081766;28;20200;-65
2021/10/25 03:01:22;;;;;;;1.37;1.00;;;1.80;95.10;;;;;;2081526;28;20191;-66
2021/10/25 03:02:23;;;;;;;3.03;1.20;;;1.70;95.30;;;;;;2081792;28;20201;-65
2021/10/25 03:03:24;;;;;;;1.70;1.30;;;1.70;95.50;;;;;;2081597;28;20778;-66
2021/10/25 03:04:25;;;;;;;1.30;1.10;;;1.70;95.70;;;;;;2081875;28;20310;-65
2021/10/25 03:05:26;;;;;;;1.87;1.13;;;1.60;95.70;;;;;;2081834;28;20189;-66
2021/10/25 03:06:26;;;;;;;2.05;1.23;;;1.60;95.60;;;;;;2081682;28;20680;-65
2021/10/25 03:07:27;;;;;;;1.80;1.30;;;1.60;95.60;;;;;;2081697;28;20189;-65
2021/10/25 03:08:28;;;;;;;2.00;1.20;;;1.60;95.80;;;;;;2081699;28;20177;-66
2021/10/25 03:09:29;;;;;;;2.03;1.33;;;1.60;95.90;;;;;;2081507;28;20304;-66
2021/10/25 03:10:30;;;;;;;2.03;1.40;;;1.60;96.00;;;;;;2081696;28;20177;-64
2021/10/25 03:11:30;;;;;;;2.22;1.30;;;1.60;96.20;;;;;;2081411;28;20238;-66
2021/10/25 03:12:32;;;;;;;1.60;1.10;;;1.60;96.30;;;;;;2081706;28;20221;-66
2021/10/25 03:13:33;;;;;;;1.85;1.30;;;1.60;96.20;;;;;;2081644;28;20208;-65
2021/10/25 03:14:33;;;;;;;1.85;1.20;;;1.60;96.20;;;;;;2081669;28;20541;-66
2021/10/25 03:15:35;;;;;;;1.27;1.10;;;1.60;96.30;;;;;;2081626;28;20169;-65
2021/10/25 03:16:35;;;;;;;3.08;1.38;;;1.50;96.20;;;;;;2081777;28;20668;-66
2021/10/25 03:17:36;;;;;;;2.37;1.37;;;1.50;96.20;;;;;;2081686;28;20183;-65
2021/10/25 03:18:37;;;;;;;1.87;1.20;;;1.50;96.20;;;;;;2081671;28;20650;-65
2021/10/25 03:19:38;;;;;;;2.43;1.50;;;1.60;96.50;;;;;;2081566;28;20177;-64
2021/10/25 03:20:38;;;;;;;1.40;1.30;;;1.50;96.80;;;;;;2081172;28;20211;-65
2021/10/25 03:21:39;;;;;;;2.43;1.50;;;1.50;96.80;;;;;;2080793;28;20741;-66
2021/10/25 03:22:41;;;;;;;2.17;1.60;;;1.50;96.80;;;;;;2081769;28;20928;-65
2021/10/25 03:23:41;;;;;;;2.53;1.42;;;1.60;96.90;;;;;;2081523;28;20184;-66
2021/10/25 03:24:45;;;;;;;2.00;1.30;;;1.60;96.80;;;;;;2081725;28;20204;-66
2021/10/25 03:25:45;;;;;;;1.80;1.35;;;1.60;96.70;;;;;;2081501;28;20177;-66
2021/10/25 03:26:46;;;;;;;2.20;1.50;;;1.60;96.80;;;;;;2081508;28;20224;-66
2021/10/25 03:27:48;;;;;;;3.10;1.90;;;1.60;96.70;;;;;;2081599;28;20181;-66
2021/10/25 03:28:49;;;;;;;2.17;1.80;;;1.60;96.70;;;;;;2081720;28;20184;-66
2021/10/25 03:29:49;;;;;;;4.03;1.80;;;1.60;96.80;;;;;;2081469;28;20227;-65
2021/10/25 03:30:50;;;;;;;3.23;1.87;;;1.60;96.70;;;;;;2081456;28;20205;-64
2021/10/25 03:31:51;;;;;;;4.13;1.60;;;1.60;96.60;;;;;;2081241;28;20184;-66
2021/10/25 03:32:52;;;;;;;3.75;1.63;;;1.70;96.60;;;;;;2081530;28;20218;-65
2021/10/25 03:33:53;;;;;;;2.23;1.73;;;1.70;96.50;;;;;;2081491;28;20592;-66
2021/10/25 03:34:54;;;;;;;3.43;2.00;;;1.70;96.40;;;;;;2081429;28;20600;-66
2021/10/25 03:35:54;;;;;;;2.10;1.60;;;1.70;96.30;;;;;;2081386;28;20185;-65
2021/10/25 03:36:55;;;;;;;2.27;1.70;;;1.70;96.30;;;;;;2081534;28;20219;-66
2021/10/25 03:37:57;;;;;;;2.92;2.00;;;1.80;96.30;;;;;;2081477;28;20184;-64
2021/10/25 03:38:58;;;;;;;3.40;2.00;;;1.70;96.30;;;;;;2081605;28;20216;-65
2021/10/25 03:40:00;;;;;;;3.03;2.10;;;1.80;96.30;;;;;;2081431;28;20636;-65
2021/10/25 03:41:01;;;;;;;3.85;2.38;;;1.80;96.30;;;;;;2081235;28;20181;-65
2021/10/25 03:42:08;;;;;;;2.45;2.25;;;1.80;96.20;;;;;;2081501;28;20352;-65
2021/10/25 03:43:09;;;;;;;4.05;2.28;;;1.80;96.30;;;;;;2081461;28;20633;-65
2021/10/25 03:44:27;;;;;;;2.35;2.15;;;1.80;96.30;;;;;;2081440;28;20208;-66
2021/10/25 03:49:34;;;;;;;2.55;1.90;;;1.90;96.20;;;;;;2072129;28;20197;-65
2021/10/25 03:50:36;;;;;;;1.67;1.42;;;1.90;96.20;;;;;;2072091;28;20219;-65
2021/10/25 03:51:39;;;;;;;2.97;1.70;;;1.90;96.10;;;;;;2075147;28;20664;-65
2021/10/25 03:52:55;;;;;;;3.03;1.90;;;1.80;96.10;;;;;;2081393;28;20255;-64
2021/10/25 03:54:16;;;;;;;2.20;1.65;;;1.80;96.20;;;;;;2081410;28;20247;-66
2021/10/25 03:58:04;;;;;;;3.65;1.98;;;1.80;96.10;;;;;;2081355;28;20185;-66
2021/10/25 04:01:51;;;;;;;2.00;1.77;;;1.80;96.30;;;;;;2080960;28;20189;-66
2021/10/25 04:03:27;;;;;;;2.80;1.80;;;1.70;96.70;;;;;;2081350;28;20157;-65
2021/10/25 04:25:14;;;;;;;3.88;2.78;;;1.70;96.90;;;;;;2072113;28;20173;-65
2021/10/25 04:27:54;;;;;;;4.25;2.78;;;1.70;97.10;;;;;;2081375;28;20173;-66
2021/10/25 04:28:55;;;;;;;3.80;2.80;;;1.70;97.00;;;;;;2081312;28;20169;-66
2021/10/25 04:30:05;;;;;;;3.43;2.63;;;1.70;97.00;;;;;;2081110;28;20256;-66
2021/10/25 04:31:07;;;;;;;3.05;2.42;;;1.70;96.90;;;;;;2088636;28;20566;-66
2021/10/25 04:32:08;;;;;;;4.05;3.05;;;1.70;96.90;;;;;;2087683;28;20188;-65
2021/10/25 04:33:09;;;;;;;3.70;2.83;;;1.70;96.70;;;;;;2081339;28;20248;-66
2021/10/25 04:34:09;;;;;;;5.03;2.83;;;1.70;96.60;;;;;;2081152;28;20648;-65
2021/10/25 04:35:11;;;;;;;2.77;2.30;;;1.70;96.70;;;;;;2081110;28;20666;-65
2021/10/25 04:36:11;;;;;;;5.95;2.72;;;1.70;96.80;;;;;;2081048;28;20534;-65
2021/10/25 04:37:12;;;;;;;3.83;2.83;;;1.70;97.00;;;;;;2081232;28;20234;-65
2021/10/25 04:38:13;;;;;;;5.67;2.40;;;1.70;97.00;;;;;;2081215;28;20203;-66
2021/10/25 04:39:14;;;;;;;4.35;2.65;;;1.70;97.00;;;;;;2088820;28;20192;-66
2021/10/25 04:40:15;;;;;;;4.28;3.10;;;1.70;97.00;;;;;;2088824;28;20213;-66
2021/10/25 04:41:16;;;;;;;2.60;2.37;;;1.80;97.00;;;;;;2080870;28;20200;-66
2021/10/25 04:42:17;;;;;;;3.07;2.43;;;1.80;97.00;;;;;;2081315;28;20268;-66
2021/10/25 04:43:19;;;;;;;3.20;2.30;;;1.80;97.00;;;;;;2081118;28;20292;-65
2021/10/25 04:44:20;;;;;;;2.38;2.10;;;1.80;96.90;;;;;;2081174;28;20658;-65
2021/10/25 04:45:21;;;;;;;3.72;2.35;;;1.80;96.90;;;;;;2080386;28;20177;-66
2021/10/25 04:46:21;;;;;;;3.90;2.47;;;1.80;96.90;;;;;;2080453;28;20644;-66
2021/10/25 04:47:22;;;;;;;3.20;2.37;;;1.80;96.80;;;;;;2081093;28;20177;-66
2021/10/25 04:48:23;;;;;;;5.50;2.60;;;1.80;96.70;;;;;;2081317;28;20184;-66
2021/10/25 04:49:23;;;;;;;2.67;1.93;;;1.80;96.70;;;;;;2081161;28;20184;-64
2021/10/25 04:50:24;;;;;;;3.77;2.13;;;1.80;97.00;;;;;;2081095;28;20185;-64
2021/10/25 04:51:25;;;;;;;2.70;2.20;;;1.80;97.40;;;;;;2080789;28;20181;-64
2021/10/25 04:52:29;;;;;;;4.27;3.33;;;1.80;97.50;;;;;;2081341;28;20188;-63
2021/10/25 04:53:30;;;;;;;8.75;4.70;;;1.80;97.60;;;;;;2081177;28;20469;-63
2021/10/25 04:54:31;;;;;;;2.88;2.33;;;1.80;97.60;;;;;;2081055;28;20220;-64
2021/10/25 04:55:32;;;;;;;3.20;2.03;;;1.80;97.50;;;;;;2081155;28;20184;-63
2021/10/25 04:56:33;;;;;;;3.17;1.77;;;1.70;97.30;;;;;;2081018;28;20440;-64
2021/10/25 04:57:33;;;;;;;3.37;2.13;;;1.70;97.20;;;;;;2081130;28;20176;-65
2021/10/25 04:58:34;;;;;;;3.27;2.20;;;1.80;97.10;;;;;;2081134;28;20177;-64
2021/10/25 04:59:35;;;;;;;3.87;2.13;;;1.70;97.50;;;;;;2081156;28;20659;-64
2021/10/25 05:00:35;;;;;;;2.97;2.30;;;1.70;96.90;;;;;;2081286;28;20208;-65
2021/10/25 05:01:36;;;;;;;2.97;2.20;;;1.70;96.80;;;;;;2080725;28;20216;-64
2021/10/25 05:02:38;;;;;;;3.13;2.00;;;1.70;96.70;;;;;;2081224;28;20188;-64
2021/10/25 05:03:38;;;;;;;3.38;2.55;;;1.70;96.70;;;;;;2081123;28;20180;-65
2021/10/25 05:04:40;;;;;;;3.63;1.90;;;1.70;96.60;;;;;;2081167;28;20662;-65
2021/10/25 05:05:40;;;;;;;2.90;1.80;;;1.70;96.60;;;;;;2080992;28;20185;-64
2021/10/25 05:06:41;;;;;;;2.63;2.07;;;1.70;96.60;;;;;;2081157;28;20236;-65
2021/10/25 05:07:42;;;;;;;2.40;1.70;;;1.60;96.60;;;;;;2081005;28;20188;-63
2021/10/25 05:08:43;;;;;;;1.97;1.50;;;1.60;96.60;;;;;;2081100;28;20208;-65
2021/10/25 05:09:44;;;;;;;3.10;1.50;;;1.60;96.60;;;;;;2081056;28;20177;-64
2021/10/25 05:10:44;;;;;;;2.17;1.60;;;1.60;96.60;;;;;;2081069;28;20231;-65
2021/10/25 05:11:45;;;;;;;2.27;1.70;;;1.60;96.70;;;;;;2080805;28;20558;-64
2021/10/25 05:12:46;;;;;;;3.28;2.00;;;1.50;96.80;;;;;;2081028;28;20180;-64
2021/10/25 05:13:47;;;;;;;2.73;1.77;;;1.50;97.00;;;;;;2080996;28;20235;-64
2021/10/25 05:14:48;;;;;;;2.73;1.70;;;1.50;97.00;;;;;;2081413;28;20664;-64
2021/10/25 05:15:48;;;;;;;2.87;2.20;;;1.50;96.90;;;;;;2082677;28;20180;-64
2021/10/25 05:16:49;;;;;;;2.83;2.33;;;1.50;97.00;;;;;;2082633;28;20209;-64
2021/10/25 05:17:50;;;;;;;4.47;3.20;;;1.40;97.10;;;;;;2082803;28;20724;-65
2021/10/25 05:18:50;;;;;;;4.47;3.10;;;1.40;97.20;;;;;;2082565;28;20606;-63
2021/10/25 05:19:52;;;;;;;4.93;3.70;;;1.40;97.30;;;;;;2082606;28;20252;-64
2021/10/25 05:20:52;;;;;;;4.32;3.00;;;1.40;97.40;;;;;;2082506;28;20173;-63
2021/10/25 05:21:53;;;;;;;2.80;2.07;;;1.30;97.50;;;;;;2082370;28;20312;-64
2021/10/25 05:22:54;;;;;;;2.43;2.00;;;1.40;97.60;;;;;;2082524;28;20174;-64
2021/10/25 05:23:55;;;;;;;4.07;2.10;;;1.40;97.70;;;;;;2082602;28;20173;-64
2021/10/25 05:24:57;;;;;;;2.35;1.77;;;1.40;97.70;;;;;;2082485;28;20203;-65
2021/10/25 05:25:57;;;;;;;2.75;1.77;;;1.40;97.60;;;;;;2082566;28;20272;-65
2021/10/25 05:26:58;;;;;;;2.60;1.90;;;1.50;97.70;;;;;;2082524;28;20180;-63
2021/10/25 05:27:59;;;;;;;4.53;2.10;;;1.50;97.80;;;;;;2082594;28;20197;-63
2021/10/25 05:29:00;;;;;;;2.27;2.00;;;1.50;97.80;;;;;;2082416;28;20180;-65
2021/10/25 05:30:02;;;;;;;3.30;2.30;;;1.50;97.80;;;;;;2082554;28;20184;-65
2021/10/25 05:31:03;;;;;;;5.90;3.33;;;1.50;97.70;;;;;;2082239;28;20196;-63
2021/10/25 05:32:05;;;;;;;6.40;4.10;;;1.50;97.60;;;;;;2082637;28;20192;-64
2021/10/25 05:33:06;;;;;;;9.48;4.68;;;1.50;97.70;;;;;;2082417;28;20177;-66
2021/10/25 05:34:09;;;;;;;8.73;4.03;;;1.60;97.60;;;;;;2082406;28;20193;-63
2021/10/25 05:35:09;;;;;;;6.25;4.05;;;1.60;97.50;;;;;;2082449;28;20185;-62
2021/10/25 05:36:11;;;;;;;5.63;4.00;;;1.60;97.30;;;;;;2082498;28;20234;-65
2021/10/25 05:37:11;;;;;;;6.13;3.83;;;1.50;97.10;;;;;;2082442;28;20209;-64
2021/10/25 05:38:13;;;;;;;5.57;4.10;;;1.60;97.00;;;;;;2082458;28;20185;-65
2021/10/25 05:39:13;;;;;;;8.32;4.50;;;1.60;96.90;;;;;;2082343;28;20277;-63
2021/10/25 05:40:14;;;;;;;7.57;3.93;;;1.50;96.70;;;;;;2082492;28;20196;-64
2021/10/25 05:41:15;;;;;;;6.80;3.60;;;1.50;96.50;;;;;;2082186;28;20185;-65
2021/10/25 05:42:16;;;;;;;5.67;3.20;;;1.50;96.30;;;;;;2082513;28;20206;-63
2021/10/25 05:43:16;;;;;;;3.77;3.13;;;1.50;96.40;;;;;;2082408;28;20251;-65
2021/10/25 05:44:19;;;;;;;3.93;2.77;;;1.50;96.50;;;;;;2082557;28;20644;-66
2021/10/25 05:45:19;;;;;;;8.02;3.10;;;1.50;96.60;;;;;;2082296;28;20220;-65
2021/10/25 05:46:20;;;;;;;4.67;2.90;;;1.40;96.60;;;;;;2082404;28;20667;-65
2021/10/25 05:47:22;;;;;;;4.17;2.83;;;1.40;96.50;;;;;;2082352;28;20221;-66
2021/10/25 05:48:23;;;;;;;5.18;2.63;;;1.40;96.40;;;;;;2082519;28;20215;-63
2021/10/25 05:49:24;;;;;;;8.10;2.72;;;1.40;96.40;;;;;;2082308;28;20185;-66
2021/10/25 05:50:25;;;;;;;5.37;2.40;;;1.40;96.50;;;;;;2082235;28;20278;-66
2021/10/25 05:51:26;;;;;;;3.40;2.30;;;1.30;96.60;;;;;;2082128;28;20250;-65
2021/10/25 05:52:27;;;;;;;2.45;1.85;;;1.30;96.70;;;;;;2082383;28;20191;-65
2021/10/25 05:53:28;;;;;;;4.55;2.17;;;1.30;96.60;;;;;;2082297;28;20185;-65
2021/10/25 05:54:30;;;;;;;2.90;2.15;;;1.30;96.50;;;;;;2082300;28;20242;-66
2021/10/25 05:55:31;;;;;;;3.92;2.28;;;1.30;96.40;;;;;;2082147;28;20599;-66